createdAt,value
2018-03-18T00:00:52.269Z,1.17
2018-03-18T00:03:20.033Z,1.18
2018-03-18T00:05:47.875Z,1.20
2018-03-18T00:08:15.450Z,1.24
2018-03-18T00:10:42.996Z,0.92
2018-03-18T00:13:11.498Z,0.87
2018-03-18T00:15:39.118Z,1.00
2018-03-18T00:18:06.801Z,1.21
2018-03-18T00:20:34.364Z,0.69
2018-03-18T00:23:01.899Z,1.06
2018-03-18T00:25:29.506Z,0.63
2018-03-18T00:27:57.031Z,0.73
2018-03-18T00:30:24.581Z,0.84
2018-03-18T00:32:52.144Z,0.98
2018-03-18T00:35:19.675Z,0.63
2018-03-18T00:37:47.468Z,0.73
2018-03-18T00:40:15.048Z,0.81
2018-03-18T00:42:42.909Z,0.91
2018-03-18T00:45:10.429Z,1.04
2018-03-18T00:47:37.964Z,1.09
2018-03-18T00:50:05.509Z,0.77
2018-03-18T00:52:33.027Z,0.95
2018-03-18T00:55:00.914Z,0.83
2018-03-18T00:57:28.432Z,0.86
2018-03-18T00:59:55.956Z,0.69
2018-03-18T01:02:23.506Z,0.79
2018-03-18T01:04:51.201Z,1.03
2018-03-18T01:07:18.759Z,0.76
2018-03-18T01:09:46.279Z,0.87
2018-03-18T01:12:13.794Z,1.02
2018-03-18T01:14:41.341Z,1.09
2018-03-18T01:17:09.782Z,1.10
2018-03-18T01:19:38.055Z,1.07
2018-03-18T01:22:05.572Z,0.64
2018-03-18T01:24:33.100Z,0.74
2018-03-18T01:27:00.656Z,0.86
2018-03-18T01:29:28.178Z,0.79
2018-03-18T01:31:56.133Z,1.05
2018-03-18T01:34:23.641Z,0.69
2018-03-18T01:36:51.166Z,0.71
2018-03-18T01:39:18.732Z,0.77
2018-03-18T01:41:46.253Z,1.03
2018-03-18T01:44:13.823Z,1.01
2018-03-18T01:46:41.342Z,1.02
2018-03-18T01:49:08.876Z,0.93
2018-03-18T01:51:36.420Z,0.99
2018-03-18T01:54:03.934Z,0.92
2018-03-18T01:56:31.489Z,1.01
2018-03-18T01:58:59.010Z,0.96
2018-03-18T02:01:26.530Z,0.99
2018-03-18T02:03:54.073Z,1.02
2018-03-18T02:06:21.590Z,0.84
2018-03-18T02:08:49.139Z,0.82
2018-03-18T02:11:16.653Z,0.56
2018-03-18T02:13:44.169Z,0.45
2018-03-18T02:16:11.706Z,0.54
2018-03-18T02:18:39.218Z,0.61
2018-03-18T02:21:06.914Z,0.60
2018-03-18T02:23:34.430Z,0.56
2018-03-18T02:26:01.941Z,0.66
2018-03-18T02:28:29.477Z,0.65
2018-03-18T02:30:57.002Z,0.69
2018-03-18T02:33:24.723Z,0.62
2018-03-18T02:35:52.495Z,0.54
2018-03-18T02:38:20.009Z,0.40
2018-03-18T02:40:47.567Z,0.48
2018-03-18T02:43:15.086Z,0.50
2018-03-18T02:45:42.717Z,0.75
2018-03-18T02:48:10.231Z,0.31
2018-03-18T02:50:37.742Z,0.46
2018-03-18T02:53:05.292Z,0.55
2018-03-18T02:55:32.809Z,0.45
2018-03-18T02:58:01.421Z,0.47
2018-03-18T03:00:28.933Z,0.55
2018-03-18T03:02:56.449Z,0.50
2018-03-18T03:05:23.990Z,0.50
2018-03-18T03:07:51.515Z,0.48
2018-03-18T03:10:19.324Z,0.48
2018-03-18T03:12:46.832Z,0.74
2018-03-18T03:15:14.429Z,0.61
2018-03-18T03:17:41.968Z,0.59
2018-03-18T03:20:09.481Z,0.40
2018-03-18T03:22:37.421Z,0.42
2018-03-18T03:25:04.934Z,0.56
2018-03-18T03:27:32.456Z,0.65
2018-03-18T03:29:59.997Z,0.34
2018-03-18T03:32:27.509Z,0.54
2018-03-18T03:34:55.057Z,0.60
2018-03-18T03:37:22.578Z,0.50
2018-03-18T03:39:50.093Z,0.63
2018-03-18T03:42:17.630Z,0.36
2018-03-18T03:44:45.141Z,0.53
2018-03-18T03:47:12.813Z,0.33
2018-03-18T03:49:40.322Z,0.44
2018-03-18T03:52:07.851Z,0.11
2018-03-18T03:54:35.395Z,0.25
2018-03-18T03:57:02.912Z,0.00
2018-03-18T03:59:30.471Z,-0.16
2018-03-18T04:01:57.981Z,0.16
2018-03-18T04:04:25.543Z,-0.13
2018-03-18T04:06:53.068Z,-0.05
2018-03-18T04:09:20.590Z,-0.01
2018-03-18T04:11:48.141Z,-0.04
2018-03-18T04:14:15.662Z,-0.02
2018-03-18T04:16:43.178Z,0.11
2018-03-18T04:19:11.627Z,0.06
2018-03-18T04:21:39.142Z,-0.16
2018-03-18T04:24:06.836Z,0.05
2018-03-18T04:26:34.366Z,-0.14
2018-03-18T04:29:01.887Z,-0.07
2018-03-18T04:31:29.433Z,-0.44
2018-03-18T04:33:56.990Z,-0.06
2018-03-18T04:36:24.530Z,-0.20
2018-03-18T04:38:52.046Z,-0.03
2018-03-18T04:41:19.580Z,-0.15
2018-03-18T04:43:47.129Z,-0.12
2018-03-18T04:46:14.649Z,-0.10
2018-03-18T04:48:42.413Z,0.03
2018-03-18T04:51:09.937Z,-0.08
2018-03-18T04:53:37.458Z,0.22
2018-03-18T04:56:04.998Z,-0.30
2018-03-18T04:58:33.490Z,-0.14
2018-03-18T05:01:01.534Z,-0.22
2018-03-18T05:03:29.055Z,-0.02
2018-03-18T05:05:56.578Z,0.09
2018-03-18T05:08:24.647Z,-0.24
2018-03-18T05:10:52.171Z,-0.14
2018-03-18T05:13:19.942Z,0.24
2018-03-18T05:15:47.474Z,-0.06
2018-03-18T05:18:14.986Z,0.11
2018-03-18T05:20:42.529Z,-0.23
2018-03-18T05:23:10.054Z,-0.29
2018-03-18T05:25:37.619Z,-0.19
2018-03-18T05:28:05.139Z,-0.25
2018-03-18T05:30:32.653Z,-0.13
2018-03-18T05:33:00.215Z,-0.08
2018-03-18T05:35:27.729Z,-0.52
2018-03-18T05:37:55.387Z,-0.16
2018-03-18T05:40:22.910Z,-0.10
2018-03-18T05:42:50.450Z,-0.34
2018-03-18T05:45:17.986Z,0.05
2018-03-18T05:47:45.505Z,0.26
2018-03-18T05:50:13.053Z,-0.09
2018-03-18T05:52:40.569Z,0.23
2018-03-18T05:55:08.085Z,0.28
2018-03-18T05:57:35.631Z,0.39
2018-03-18T06:00:03.142Z,0.28
2018-03-18T06:02:30.689Z,0.28
2018-03-18T06:04:58.200Z,0.21
2018-03-18T06:07:25.715Z,0.26
2018-03-18T06:09:53.259Z,0.28
2018-03-18T06:12:20.778Z,-0.12
2018-03-18T06:14:48.514Z,0.40
2018-03-18T06:17:16.026Z,0.14
2018-03-18T06:19:43.540Z,0.04
2018-03-18T06:22:11.081Z,0.11
2018-03-18T06:24:38.629Z,0.31
2018-03-18T06:27:06.181Z,0.13
2018-03-18T06:29:33.716Z,-0.05
2018-03-18T06:32:01.230Z,0.13
2018-03-18T06:34:28.773Z,0.12
2018-03-18T06:36:56.286Z,0.19
2018-03-18T06:39:24.012Z,-0.12
2018-03-18T06:41:51.527Z,-0.01
2018-03-18T06:44:19.059Z,-0.11
2018-03-18T06:46:46.606Z,0.34
2018-03-18T06:49:14.121Z,0.20
2018-03-18T06:51:42.112Z,0.22
2018-03-18T06:54:09.741Z,0.22
2018-03-18T06:56:37.268Z,-0.23
2018-03-18T06:59:04.813Z,0.42
2018-03-18T07:01:32.798Z,0.06
2018-03-18T07:04:00.556Z,0.19
2018-03-18T07:06:28.078Z,0.23
2018-03-18T07:08:55.662Z,0.19
2018-03-18T07:11:23.222Z,0.16
2018-03-18T07:13:50.750Z,0.35
2018-03-18T07:16:18.415Z,0.18
2018-03-18T07:18:45.929Z,0.58
2018-03-18T07:21:13.445Z,0.45
2018-03-18T07:23:41.006Z,0.22
2018-03-18T07:26:08.672Z,0.70
2018-03-18T07:28:36.544Z,0.83
2018-03-18T07:31:04.074Z,0.77
2018-03-18T07:33:31.762Z,0.84
2018-03-18T07:35:59.312Z,0.73
2018-03-18T07:38:26.838Z,0.94
2018-03-18T07:40:54.626Z,1.06
2018-03-18T07:43:22.171Z,0.95
2018-03-18T07:45:49.699Z,0.86
2018-03-18T07:48:17.307Z,0.99
2018-03-18T07:50:44.951Z,1.25
2018-03-18T07:53:12.591Z,1.04
2018-03-18T07:55:40.102Z,1.32
2018-03-18T07:58:07.621Z,1.35
2018-03-18T08:00:35.166Z,1.35
2018-03-18T08:03:02.716Z,1.34
2018-03-18T08:05:30.646Z,1.18
2018-03-18T08:07:58.185Z,1.24
2018-03-18T08:10:25.765Z,1.41
2018-03-18T08:12:53.427Z,1.18
2018-03-18T08:15:20.964Z,1.24
2018-03-18T08:17:48.519Z,1.16
2018-03-18T08:20:16.108Z,1.04
2018-03-18T08:22:43.662Z,1.08
2018-03-18T08:25:11.533Z,1.29
2018-03-18T08:27:39.087Z,1.36
2018-03-18T08:30:06.915Z,1.50
2018-03-18T08:32:34.620Z,1.75
2018-03-18T08:35:02.285Z,1.54
2018-03-18T08:37:30.787Z,1.83
2018-03-18T08:39:58.331Z,1.76
2018-03-18T08:42:29.116Z,1.94
2018-03-18T08:44:56.677Z,2.01
2018-03-18T08:47:24.483Z,2.24
2018-03-18T08:49:52.251Z,2.08
2018-03-18T08:52:19.863Z,1.94
2018-03-18T08:54:47.759Z,2.26
2018-03-18T08:57:15.280Z,2.46
2018-03-18T08:59:43.099Z,2.76
2018-03-18T09:02:10.928Z,2.57
2018-03-18T09:04:39.035Z,2.43
2018-03-18T09:07:06.913Z,2.57
2018-03-18T09:09:34.732Z,2.48
2018-03-18T09:12:02.533Z,2.50
2018-03-18T09:14:30.398Z,2.42
2018-03-18T09:16:58.572Z,2.33
2018-03-18T09:19:26.642Z,2.37
2018-03-18T09:21:54.919Z,2.39
2018-03-18T09:24:22.912Z,2.97
2018-03-18T09:26:50.960Z,3.14
2018-03-18T09:29:18.824Z,3.14
2018-03-18T09:31:47.716Z,2.92
2018-03-18T09:34:16.105Z,3.42
2018-03-18T09:36:44.574Z,3.10
2018-03-18T09:39:12.524Z,3.44
2018-03-18T09:41:41.292Z,3.65
2018-03-18T09:44:10.037Z,3.56
2018-03-18T09:46:37.848Z,3.23
2018-03-18T09:49:05.750Z,3.53
2018-03-18T09:51:33.720Z,3.69
2018-03-18T09:54:01.586Z,4.07
2018-03-18T09:56:29.704Z,4.25
2018-03-18T09:58:58.034Z,4.46
2018-03-18T10:01:26.107Z,4.49
2018-03-18T10:03:54.041Z,4.46
2018-03-18T10:06:21.910Z,4.09
2018-03-18T10:08:50.013Z,4.05
2018-03-18T10:11:17.982Z,3.84
2018-03-18T10:13:45.851Z,3.86
2018-03-18T10:16:13.772Z,3.80
2018-03-18T10:18:42.093Z,3.97
2018-03-18T10:21:11.235Z,4.55
2018-03-18T10:23:39.123Z,4.54
2018-03-18T10:26:07.536Z,4.42
2018-03-18T10:28:35.508Z,4.70
2018-03-18T10:31:03.478Z,5.10
2018-03-18T10:33:31.714Z,5.02
2018-03-18T10:35:59.616Z,4.96
2018-03-18T10:38:27.587Z,4.83
2018-03-18T10:40:55.657Z,4.59
2018-03-18T10:43:23.730Z,4.74
2018-03-18T10:45:52.003Z,4.76
2018-03-18T10:48:19.869Z,4.55
2018-03-18T10:50:47.805Z,4.69
2018-03-18T10:53:16.276Z,5.27
2018-03-18T10:55:44.189Z,5.38
2018-03-18T10:58:12.257Z,5.40
2018-03-18T11:00:45.081Z,5.47
2018-03-18T11:03:13.110Z,5.51
2018-03-18T11:05:41.181Z,5.71
2018-03-18T11:08:09.645Z,5.38
2018-03-18T11:10:37.713Z,5.87
2018-03-18T11:13:05.808Z,6.22
2018-03-18T11:15:33.746Z,6.67
2018-03-18T11:18:02.321Z,6.99
2018-03-18T11:20:30.329Z,7.52
2018-03-18T11:22:58.296Z,7.42
2018-03-18T11:25:26.564Z,6.76
2018-03-18T11:27:54.763Z,6.67
2018-03-18T11:30:22.546Z,6.70
2018-03-18T11:32:50.477Z,6.12
2018-03-18T11:35:18.446Z,6.36
2018-03-18T11:37:46.310Z,5.73
2018-03-18T11:40:14.690Z,5.94
2018-03-18T11:42:42.556Z,5.92
2018-03-18T11:45:10.424Z,5.97
2018-03-18T11:47:38.495Z,5.80
2018-03-18T11:50:06.362Z,5.48
2018-03-18T11:52:34.434Z,5.64
2018-03-18T11:55:02.299Z,6.10
2018-03-18T11:57:30.129Z,6.72
2018-03-18T11:59:58.032Z,6.37
2018-03-18T12:02:25.898Z,6.34
2018-03-18T12:04:54.028Z,6.72
2018-03-18T12:07:22.349Z,6.17
2018-03-18T12:09:50.213Z,6.23
2018-03-18T12:12:18.182Z,6.51
2018-03-18T12:14:46.049Z,6.30
2018-03-18T12:17:14.023Z,5.98
2018-03-18T12:19:41.883Z,5.29
2018-03-18T12:22:09.751Z,4.91
2018-03-18T12:24:37.620Z,4.71
2018-03-18T12:27:05.449Z,4.91
2018-03-18T12:29:33.658Z,4.83
2018-03-18T12:32:01.523Z,4.73
2018-03-18T12:34:29.391Z,5.21
2018-03-18T12:36:57.667Z,5.49
2018-03-18T12:39:26.410Z,5.38
2018-03-18T12:41:54.701Z,5.20
2018-03-18T12:44:23.211Z,4.73
2018-03-18T12:46:51.081Z,5.55
2018-03-18T12:49:19.354Z,5.32
2018-03-18T12:51:47.220Z,5.50
2018-03-18T12:54:15.108Z,5.40
2018-03-18T12:56:42.954Z,5.31
2018-03-18T12:59:10.820Z,4.90
2018-03-18T13:01:38.788Z,5.00
2018-03-18T13:04:06.551Z,4.81
2018-03-18T13:06:34.728Z,4.89
2018-03-18T13:09:02.559Z,5.05
2018-03-18T13:11:30.325Z,5.54
2018-03-18T13:13:58.222Z,5.02
2018-03-18T13:16:26.059Z,5.46
2018-03-18T13:18:54.277Z,5.01
2018-03-18T13:21:22.027Z,5.41
2018-03-18T13:23:49.791Z,5.59
2018-03-18T13:26:17.629Z,4.92
2018-03-18T13:28:45.527Z,5.27
2018-03-18T13:31:13.707Z,4.79
2018-03-18T13:33:41.667Z,4.92
2018-03-18T13:36:09.584Z,4.86
2018-03-18T13:38:37.517Z,4.86
2018-03-18T13:41:07.109Z,4.56
2018-03-18T13:43:35.077Z,4.57
2018-03-18T13:46:02.842Z,4.39
2018-03-18T13:48:30.674Z,4.42
2018-03-18T13:50:58.574Z,4.30
2018-03-18T13:53:26.440Z,4.78
2018-03-18T13:55:54.411Z,4.67
2018-03-18T13:58:22.240Z,4.34
2018-03-18T14:00:50.107Z,4.32
2018-03-18T14:03:17.974Z,4.40
2018-03-18T14:05:46.140Z,4.87
2018-03-18T14:08:14.006Z,4.33
2018-03-18T14:10:41.774Z,3.98
2018-03-18T14:13:09.681Z,4.19
2018-03-18T14:15:37.547Z,4.01
2018-03-18T14:18:05.517Z,4.01
2018-03-18T14:20:33.764Z,3.90
2018-03-18T14:23:01.631Z,3.94
2018-03-18T14:25:29.711Z,3.94
2018-03-18T14:27:57.799Z,4.08
2018-03-18T14:30:26.179Z,4.45
2018-03-18T14:32:55.070Z,4.32
2018-03-18T14:35:22.937Z,3.71
2018-03-18T14:37:51.320Z,3.63
2018-03-18T14:40:19.247Z,3.73
2018-03-18T14:42:47.112Z,4.25
2018-03-18T14:45:15.219Z,3.94
2018-03-18T14:47:43.087Z,3.77
2018-03-18T14:50:11.056Z,3.36
2018-03-18T14:52:39.024Z,3.46
2018-03-18T14:55:06.992Z,3.57
2018-03-18T14:57:35.107Z,3.39
2018-03-18T15:00:03.550Z,3.50
2018-03-18T15:02:32.436Z,3.29
2018-03-18T15:05:00.404Z,3.36
2018-03-18T15:07:28.271Z,3.07
2018-03-18T15:09:56.601Z,2.97
2018-03-18T15:12:24.621Z,2.87
2018-03-18T15:14:52.998Z,2.76
2018-03-18T15:17:21.445Z,2.56
2018-03-18T15:19:50.267Z,2.51
2018-03-18T15:22:18.644Z,2.71
2018-03-18T15:24:46.510Z,2.28
2018-03-18T15:27:15.194Z,2.38
2018-03-18T15:29:43.128Z,2.71
2018-03-18T15:32:11.133Z,2.35
2018-03-18T15:34:39.058Z,2.45
2018-03-18T15:37:06.969Z,2.28
2018-03-18T15:39:35.244Z,2.10
2018-03-18T15:42:03.213Z,2.36
2018-03-18T15:44:31.080Z,2.45
2018-03-18T15:46:59.355Z,2.23
2018-03-18T15:49:27.324Z,2.03
2018-03-18T15:51:55.703Z,2.42
2018-03-18T15:54:23.673Z,2.18
2018-03-18T15:56:51.540Z,2.29
2018-03-18T15:59:19.815Z,2.30
2018-03-18T16:01:47.637Z,2.36
2018-03-18T16:04:15.651Z,2.66
2018-03-18T16:06:43.721Z,2.28
2018-03-18T16:09:11.589Z,2.34
2018-03-18T16:11:39.763Z,2.08
2018-03-18T16:14:07.675Z,2.23
2018-03-18T16:16:35.596Z,2.24
2018-03-18T16:19:03.464Z,1.99
2018-03-18T16:21:31.333Z,2.09
2018-03-18T16:23:59.504Z,2.22
2018-03-18T16:26:27.368Z,2.20
2018-03-18T16:28:55.549Z,1.90
2018-03-18T16:31:23.512Z,1.94
2018-03-18T16:33:51.378Z,1.87
2018-03-18T16:36:20.478Z,1.89
2018-03-18T16:38:48.353Z,2.42
2018-03-18T16:41:16.212Z,2.30
2018-03-18T16:43:44.178Z,1.97
2018-03-18T16:46:12.144Z,1.97
2018-03-18T16:48:40.484Z,2.01
2018-03-18T16:51:08.344Z,2.08
2018-03-18T16:53:36.736Z,2.20
2018-03-18T16:56:05.042Z,2.13
2018-03-18T16:58:32.937Z,2.18
2018-03-18T17:01:01.186Z,2.18
2018-03-18T17:03:29.691Z,2.27
2018-03-18T17:05:57.840Z,2.18
2018-03-18T17:08:25.812Z,1.85
2018-03-18T17:10:53.675Z,2.04
2018-03-18T17:13:21.645Z,1.89
2018-03-18T17:15:49.512Z,1.82
2018-03-18T17:18:17.552Z,2.02
2018-03-18T17:20:45.551Z,1.68
2018-03-18T17:23:13.484Z,1.75
2018-03-18T17:25:42.410Z,1.49
2018-03-18T17:28:10.241Z,1.63
2018-03-18T17:30:38.932Z,1.84
2018-03-18T17:33:07.543Z,2.11
2018-03-18T17:35:35.466Z,2.08
2018-03-18T17:38:03.486Z,1.75
2018-03-18T17:40:31.560Z,1.81
2018-03-18T17:43:00.840Z,1.85
2018-03-18T17:45:40.702Z,1.91
2018-03-18T17:48:20.347Z,2.15
2018-03-18T17:51:00.023Z,2.04
2018-03-18T17:53:39.804Z,1.70
2018-03-18T17:59:09.666Z,1.66
2018-03-18T18:01:38.249Z,1.51
2018-03-18T18:04:06.510Z,1.51
2018-03-18T18:06:34.392Z,1.41
2018-03-18T18:09:02.873Z,1.81
2018-03-18T18:11:31.470Z,2.04
2018-03-18T18:13:59.732Z,1.86
2018-03-18T18:16:27.925Z,1.71
2018-03-18T18:18:56.899Z,1.64
2018-03-18T18:21:24.826Z,1.84
2018-03-18T18:23:53.158Z,1.68
2018-03-18T18:26:21.009Z,1.92
2018-03-18T18:28:49.491Z,1.66
2018-03-18T18:31:17.972Z,1.83
2018-03-18T18:33:45.809Z,1.72
2018-03-18T18:36:14.175Z,1.44
2018-03-18T18:38:42.084Z,1.86
2018-03-18T18:41:10.872Z,1.75
2018-03-18T18:43:38.841Z,1.12
2018-03-18T18:46:06.707Z,1.41
2018-03-18T18:48:35.495Z,1.75
2018-03-18T18:51:03.771Z,1.64
2018-03-18T18:53:32.013Z,1.86
2018-03-18T18:55:59.914Z,2.11
2018-03-18T18:58:27.746Z,2.03
2018-03-18T19:00:56.568Z,1.75
2018-03-18T19:03:24.434Z,1.69
2018-03-18T19:05:52.510Z,1.68
2018-03-18T19:08:20.542Z,1.65
2018-03-18T19:10:48.563Z,1.72
2018-03-18T19:13:17.336Z,1.46
2018-03-18T19:15:46.223Z,1.27
2018-03-18T19:18:16.038Z,1.45
2018-03-18T19:20:44.649Z,1.31
2018-03-18T19:23:12.589Z,1.49
2018-03-18T19:25:40.967Z,1.31
2018-03-18T19:28:08.918Z,0.81
2018-03-18T19:30:37.615Z,1.13
2018-03-18T19:33:05.489Z,1.20
2018-03-18T19:35:33.354Z,1.20
2018-03-18T19:38:01.238Z,1.19
2018-03-18T19:40:29.292Z,1.31
2018-03-18T19:42:58.184Z,1.24
2018-03-18T19:45:25.975Z,1.64
2018-03-18T19:47:54.204Z,1.86
2018-03-18T19:50:22.606Z,1.92
2018-03-18T19:52:50.983Z,1.46
2018-03-18T19:55:20.224Z,1.18
2018-03-18T19:57:48.429Z,1.46
2018-03-18T20:00:16.321Z,1.43
2018-03-18T20:02:44.855Z,1.35
2018-03-18T20:05:12.692Z,1.52
2018-03-18T20:07:40.743Z,1.20
2018-03-18T20:10:10.039Z,1.12
2018-03-18T20:12:37.909Z,1.57
2018-03-18T20:15:06.556Z,1.24
2018-03-18T20:17:34.422Z,1.39
2018-03-18T20:20:02.631Z,1.27
2018-03-18T20:22:31.168Z,1.28
2018-03-18T20:24:59.913Z,1.32
2018-03-18T20:27:28.266Z,1.21
2018-03-18T20:29:56.230Z,1.35
2018-03-18T20:32:24.629Z,1.44
2018-03-18T20:34:53.453Z,1.16
2018-03-18T20:37:21.386Z,1.40
2018-03-18T20:39:50.069Z,0.99
2018-03-18T20:42:18.243Z,1.10
2018-03-18T20:44:46.416Z,0.93
2018-03-18T20:47:14.712Z,1.16
2018-03-18T20:49:42.863Z,1.46
2018-03-18T20:52:10.803Z,0.88
2018-03-18T20:54:39.916Z,1.04
2018-03-18T20:57:07.805Z,1.33
2018-03-18T20:59:35.979Z,1.19
2018-03-18T21:02:04.352Z,0.95
2018-03-18T21:04:32.308Z,0.98
2018-03-18T21:07:01.077Z,1.04
2018-03-18T21:09:29.076Z,1.32
2018-03-18T21:11:57.050Z,1.33
2018-03-18T21:14:25.526Z,1.42
2018-03-18T21:16:53.494Z,1.32
2018-03-18T21:19:21.360Z,1.11
2018-03-18T21:21:50.149Z,1.01
2018-03-18T21:24:18.019Z,1.21
2018-03-18T21:26:45.789Z,1.36
2018-03-18T21:29:13.668Z,1.26
2018-03-18T21:31:41.618Z,1.20
2018-03-18T21:34:10.526Z,1.24
2018-03-18T21:36:38.424Z,1.18
2018-03-18T21:39:06.364Z,1.11
2018-03-18T21:41:35.231Z,1.10
2018-03-18T21:44:03.897Z,0.98
2018-03-18T21:46:31.886Z,1.34
2018-03-18T21:48:59.832Z,1.20
2018-03-18T21:51:27.727Z,1.15
2018-03-18T21:53:55.664Z,1.28
2018-03-18T21:56:23.631Z,1.10
2018-03-18T21:58:51.699Z,0.97
2018-03-18T22:01:19.810Z,1.27
2018-03-18T22:03:47.917Z,1.03
2018-03-18T22:06:15.945Z,1.10
2018-03-18T22:08:44.189Z,0.87
2018-03-18T22:11:12.863Z,0.89
2018-03-18T22:13:40.774Z,0.98
2018-03-18T22:16:08.788Z,0.85
2018-03-18T22:18:36.814Z,0.95
2018-03-18T22:21:04.671Z,1.04
2018-03-18T22:23:32.888Z,1.20
2018-03-18T22:26:00.720Z,1.25
2018-03-18T22:28:28.587Z,1.10
2018-03-18T22:30:56.452Z,1.18
2018-03-18T22:33:24.320Z,1.11
2018-03-18T22:35:52.618Z,1.15
2018-03-18T22:38:20.565Z,1.15
2018-03-18T22:40:48.327Z,1.17
2018-03-18T22:43:16.081Z,1.17
2018-03-18T22:45:43.959Z,0.83
2018-03-18T22:48:11.928Z,0.82
2018-03-18T22:50:39.594Z,1.17
2018-03-18T22:53:07.245Z,0.49
2018-03-18T22:55:35.117Z,0.79
2018-03-18T22:58:02.991Z,0.59
2018-03-18T23:00:31.671Z,1.16
2018-03-18T23:02:59.639Z,1.04
2018-03-18T23:05:27.363Z,0.90
2018-03-18T23:07:55.136Z,1.07
2018-03-18T23:10:22.784Z,0.79
2018-03-18T23:12:50.687Z,0.98
2018-03-18T23:15:18.221Z,1.13
2018-03-18T23:17:45.859Z,0.86
2018-03-18T23:20:13.497Z,0.96
2018-03-18T23:22:41.105Z,1.12
2018-03-18T23:25:09.301Z,0.64
2018-03-18T23:27:37.177Z,1.16
2018-03-18T23:30:04.839Z,1.00
2018-03-18T23:32:32.606Z,1.09
2018-03-18T23:35:00.368Z,1.37
2018-03-18T23:37:28.543Z,0.82
2018-03-18T23:39:56.093Z,0.91
2018-03-18T23:42:23.649Z,0.68
2018-03-18T23:44:51.322Z,0.91
2018-03-18T23:47:18.906Z,0.78
2018-03-18T23:49:46.627Z,0.96
2018-03-18T23:52:14.306Z,1.06
2018-03-18T23:54:41.850Z,0.99
2018-03-18T23:57:09.440Z,1.01
2018-03-18T23:59:38.008Z,1.43
